createdAt,value
2022-11-29T00:00:25.643Z,6.73
2022-11-29T00:15:23.466Z,6.57
2022-11-29T00:30:23.607Z,6.73
2022-11-29T00:45:23.690Z,6.70
2022-11-29T01:00:27.588Z,6.57
2022-11-29T01:15:23.792Z,6.57
2022-11-29T01:30:23.780Z,6.55
2022-11-29T01:45:33.438Z,6.53
2022-11-29T02:00:36.992Z,6.50
2022-11-29T02:15:23.489Z,6.67
2022-11-29T02:30:22.843Z,6.53
2022-11-29T02:45:23.727Z,6.55
2022-11-29T03:00:22.925Z,6.55
2022-11-29T03:15:23.864Z,6.55
2022-11-29T03:30:23.734Z,6.77
2022-11-29T03:45:23.631Z,6.65
2022-11-29T04:00:29.910Z,6.80
2022-11-29T04:15:23.424Z,6.87
2022-11-29T04:30:23.857Z,6.73
2022-11-29T04:45:23.650Z,6.73
2022-11-29T05:00:33.212Z,6.70
2022-11-29T05:15:23.645Z,6.65
2022-11-29T05:30:23.927Z,6.65
2022-11-29T05:45:23.754Z,6.65
2022-11-29T06:00:24.464Z,6.80
2022-11-29T06:15:23.462Z,6.65
2022-11-29T06:30:26.412Z,6.65
2022-11-29T06:45:24.097Z,6.65
2022-11-29T07:00:36.728Z,6.80
2022-11-29T07:15:23.864Z,6.68
2022-11-29T07:30:26.020Z,6.68
2022-11-29T07:45:23.704Z,7.15
2022-11-29T08:00:37.826Z,6.73
2022-11-29T08:15:24.410Z,6.87
2022-11-29T08:30:25.052Z,6.78
2022-11-29T08:45:24.147Z,6.80
2022-11-29T09:00:25.211Z,6.85
2022-11-29T09:15:23.952Z,6.90
2022-11-29T09:30:26.356Z,7.10
2022-11-29T09:45:24.530Z,7.05
2022-11-29T10:00:39.383Z,7.37
2022-11-29T10:15:23.673Z,7.25
2022-11-29T10:30:27.790Z,7.25
2022-11-29T10:45:24.161Z,7.25
2022-11-29T11:00:27.041Z,7.30
2022-11-29T11:15:24.020Z,7.43
2022-11-29T11:30:28.152Z,7.30
2022-11-29T11:45:23.854Z,7.30
2022-11-29T12:00:55.489Z,7.32
2022-11-29T12:15:23.676Z,7.43
2022-11-29T12:30:25.232Z,7.45
2022-11-29T12:45:23.628Z,7.43
2022-11-29T13:00:26.934Z,7.50
2022-11-29T13:15:23.058Z,7.50
2022-11-29T13:30:23.327Z,7.55
2022-11-29T13:45:23.046Z,7.65
2022-11-29T14:00:36.987Z,7.80
2022-11-29T14:15:23.837Z,7.88
2022-11-29T14:30:27.326Z,7.90
2022-11-29T14:45:23.088Z,7.93
2022-11-29T15:00:32.610Z,7.73
2022-11-29T15:15:23.050Z,7.87
2022-11-29T15:30:23.196Z,7.83
2022-11-29T15:45:23.562Z,7.52
2022-11-29T16:00:27.545Z,7.45
2022-11-29T16:15:23.170Z,7.40
2022-11-29T16:30:23.193Z,7.38
2022-11-29T16:45:23.751Z,7.38
2022-11-29T17:00:26.978Z,7.38
2022-11-29T17:15:23.123Z,7.35
2022-11-29T17:30:31.537Z,7.43
2022-11-29T17:45:23.391Z,7.60
2022-11-29T18:00:33.963Z,7.57
2022-11-29T18:15:23.143Z,7.57
2022-11-29T18:30:23.388Z,7.67
2022-11-29T18:45:23.254Z,7.60
2022-11-29T19:00:23.775Z,7.52
2022-11-29T19:15:23.379Z,7.52
2022-11-29T19:30:25.509Z,7.52
2022-11-29T19:45:23.702Z,7.50
2022-11-29T20:00:25.487Z,7.52
2022-11-29T20:15:23.382Z,7.53
2022-11-29T20:30:23.456Z,7.50
2022-11-29T20:45:23.391Z,7.63
2022-11-29T21:00:23.544Z,7.63
2022-11-29T21:15:23.410Z,7.52
2022-11-29T21:30:23.583Z,7.52
2022-11-29T21:45:23.397Z,7.35
2022-11-29T22:00:34.423Z,7.30
2022-11-29T22:15:25.260Z,7.30
2022-11-29T22:30:25.608Z,7.15
2022-11-29T22:45:23.554Z,7.10
2022-11-29T23:03:07.548Z,8.00
2022-11-29T23:15:23.675Z,6.95
2022-11-29T23:30:30.140Z,6.90
2022-11-29T23:45:23.713Z,6.80
